Anchorage, AK (99514)

1:57 AM AKDT on July 23, 2016 (GMT -0800)
The Spurlocks at Airport Heights | | Change Station

Elev 124 ft 61.21 °N, 149.82 °W | Updated 8 seconds ago

Overcast
Overcast
57.0 °F
Feels Like 57.0 °F
N
0.0
Wind Variable Wind from NW
Gusts 0.0 mph

Today
High -- | Low -- °F
--% Chance of Precip.
Yesterday
High -- | Low -- °F
Precip. -- in
Pressure 29.55 in
Visibility 10.0 miles
Clouds Scattered Clouds 800 ft
Mostly Cloudy 1200 ft
Overcast 8500 ft
Dew Point 56 °F
Humidity 98%
Rainfall 0.00 in
Snow Depth Not available.
5:10 AM 10:58 PM
Waning Gibbous, 86% visible
METAR PAMR 230953Z 01005KT 10SM SCT008 BKN012 OVC085 14/12 A2954 RMK AO2 RAB13E27 SLP004 P0000 T01390117
Pressure 29.55 in
Visibility 10.0 miles
Clouds Scattered Clouds 800 ft
Mostly Cloudy 1200 ft
Overcast 8500 ft
Dew Point 56 °F
Humidity 98%
Rainfall 0.00 in
Snow Depth Not available.
5:10 AM 10:58 PM
Waning Gibbous, 86% visible
METAR PAMR 230953Z 01005KT 10SM SCT008 BKN012 OVC085 14/12 A2954 RMK AO2 RAB13E27 SLP004 P0000 T01390117

10-Day Weather Forecast

Almanac

Astronomy

Jul. 23, 2016 Rise Set
Actual Time
Civil Twilight
Nautical Twilight
Astronomical Twilight
Moon
Length of Visible Light
Length of Day
Tomorrow will be .
, % of the Moon is Illuminated

Today's Extremes

State Highs State Lows

Community

WunderPhotos

Upload Photos

1,926,790 photos uploaded!

WunderBlog® & News

Nearby

Air Quality

  Air Quality AQ Index Pollutant
Not available.

Snow Depth

Station Depth Elevation

Earthquake Activity

City Distance Mag. Time & Date
Minimum magnitude displayed is 2.5.

Coastal Water Temperatures

Place Temperature

Stations

Nearby Weather Stations

Station Location Temp. Windchill Dew Point Humidity Wind Precip. Elev Updated Type
                   

Watches & Warnings

There are currently no watches in effect.